sensor_id;sensor_type;location;lat;lon;timestamp;pressure;altitude;pressure_sealevel;temperature;humidity
67842;BME280;54642;59.126;37.876;2024-02-14T00:00:28;101711.91;;;-15.58;65.20
67842;BME280;54642;59.126;37.876;2024-02-14T00:02:54;101718.16;;;-15.55;65.43
67842;BME280;54642;59.126;37.876;2024-02-14T00:05:20;101685.34;;;-15.72;65.14
67842;BME280;54642;59.126;37.876;2024-02-14T00:07:46;101712.31;;;-15.55;65.46
67842;BME280;54642;59.126;37.876;2024-02-14T00:10:12;101736.13;;;-15.50;65.38
67842;BME280;54642;59.126;37.876;2024-02-14T00:12:41;101704.78;;;-15.62;65.00
67842;BME280;54642;59.126;37.876;2024-02-14T00:15:08;101729.56;;;-15.49;65.15
67842;BME280;54642;59.126;37.876;2024-02-14T00:17:35;101704.41;;;-15.65;65.21
67842;BME280;54642;59.126;37.876;2024-02-14T00:20:02;101713.56;;;-15.51;65.23
67842;BME280;54642;59.126;37.876;2024-02-14T00:22:32;101715.53;;;-15.49;65.38
67842;BME280;54642;59.126;37.876;2024-02-14T00:24:57;101713.19;;;-15.55;65.13
67842;BME280;54642;59.126;37.876;2024-02-14T00:27:23;101707.59;;;-15.66;65.09
67842;BME280;54642;59.126;37.876;2024-02-14T00:29:51;101720.38;;;-15.63;65.18
67842;BME280;54642;59.126;37.876;2024-02-14T00:32:17;101708.97;;;-15.68;65.13
67842;BME280;54642;59.126;37.876;2024-02-14T00:34:51;101697.53;;;-15.81;65.27
67842;BME280;54642;59.126;37.876;2024-02-14T00:37:19;101690.41;;;-15.85;65.05
67842;BME280;54642;59.126;37.876;2024-02-14T00:39:45;101671.28;;;-15.99;65.15
67842;BME280;54642;59.126;37.876;2024-02-14T00:42:11;101697.47;;;-15.88;65.23
67842;BME280;54642;59.126;37.876;2024-02-14T00:44:37;101729.88;;;-15.74;65.18
67842;BME280;54642;59.126;37.876;2024-02-14T00:47:02;101735.94;;;-15.71;65.07
67842;BME280;54642;59.126;37.876;2024-02-14T00:49:28;101732.69;;;-15.78;64.92
67842;BME280;54642;59.126;37.876;2024-02-14T00:51:54;101738.69;;;-15.83;65.14
67842;BME280;54642;59.126;37.876;2024-02-14T00:54:21;101724.09;;;-15.87;65.22
67842;BME280;54642;59.126;37.876;2024-02-14T00:56:46;101722.31;;;-15.88;65.24
67842;BME280;54642;59.126;37.876;2024-02-14T00:59:12;101742.44;;;-15.79;65.06
67842;BME280;54642;59.126;37.876;2024-02-14T01:01:39;101728.19;;;-15.87;64.99
67842;BME280;54642;59.126;37.876;2024-02-14T01:04:04;101754.88;;;-15.79;65.17
67842;BME280;54642;59.126;37.876;2024-02-14T01:06:30;101753.28;;;-15.79;65.31
67842;BME280;54642;59.126;37.876;2024-02-14T01:08:56;101726.72;;;-15.93;65.34
67842;BME280;54642;59.126;37.876;2024-02-14T01:11:22;101737.19;;;-15.88;64.98
67842;BME280;54642;59.126;37.876;2024-02-14T01:13:48;101749.00;;;-15.80;64.93
67842;BME280;54642;59.126;37.876;2024-02-14T01:16:14;101755.56;;;-15.80;65.00
67842;BME280;54642;59.126;37.876;2024-02-14T01:18:40;101750.53;;;-15.87;64.94
67842;BME280;54642;59.126;37.876;2024-02-14T01:21:06;101762.03;;;-15.88;64.89
67842;BME280;54642;59.126;37.876;2024-02-14T01:23:32;101772.78;;;-15.82;65.04
67842;BME280;54642;59.126;37.876;2024-02-14T01:25:58;101731.41;;;-16.01;65.25
67842;BME280;54642;59.126;37.876;2024-02-14T01:28:24;101754.59;;;-15.88;65.13
67842;BME280;54642;59.126;37.876;2024-02-14T01:30:51;101724.63;;;-16.02;64.85
67842;BME280;54642;59.126;37.876;2024-02-14T01:33:17;101757.38;;;-15.92;64.93
67842;BME280;54642;59.126;37.876;2024-02-14T01:35:42;101733.19;;;-16.13;64.92
67842;BME280;54642;59.126;37.876;2024-02-14T01:38:08;101726.66;;;-16.13;64.70
67842;BME280;54642;59.126;37.876;2024-02-14T01:40:34;101742.66;;;-16.10;64.97
67842;BME280;54642;59.126;37.876;2024-02-14T01:43:03;101758.03;;;-16.00;65.01
67842;BME280;54642;59.126;37.876;2024-02-14T01:45:29;101765.16;;;-15.96;64.76
67842;BME280;54642;59.126;37.876;2024-02-14T01:48:01;101730.72;;;-16.13;64.78
67842;BME280;54642;59.126;37.876;2024-02-14T01:50:27;101767.56;;;-16.03;65.06
67842;BME280;54642;59.126;37.876;2024-02-14T01:53:00;101735.44;;;-16.22;64.73
67842;BME280;54642;59.126;37.876;2024-02-14T01:55:27;101744.66;;;-16.21;64.83
67842;BME280;54642;59.126;37.876;2024-02-14T01:57:55;101739.81;;;-16.26;64.85
67842;BME280;54642;59.126;37.876;2024-02-14T02:00:21;101752.41;;;-16.25;64.60
67842;BME280;54642;59.126;37.876;2024-02-14T02:02:47;101760.75;;;-16.24;64.65
67842;BME280;54642;59.126;37.876;2024-02-14T02:05:18;101746.97;;;-16.35;64.67
67842;BME280;54642;59.126;37.876;2024-02-14T02:07:44;101781.47;;;-16.24;64.71
67842;BME280;54642;59.126;37.876;2024-02-14T02:10:14;101778.22;;;-16.30;64.50
67842;BME280;54642;59.126;37.876;2024-02-14T02:12:46;101751.63;;;-16.44;64.54
67842;BME280;54642;59.126;37.876;2024-02-14T02:15:32;101784.38;;;-16.34;64.53
67842;BME280;54642;59.126;37.876;2024-02-14T02:18:18;101787.38;;;-16.23;64.58
67842;BME280;54642;59.126;37.876;2024-02-14T02:21:05;101738.28;;;-16.64;64.89
67842;BME280;54642;59.126;37.876;2024-02-14T02:23:34;101772.09;;;-16.39;65.01
67842;BME280;54642;59.126;37.876;2024-02-14T02:26:00;101782.28;;;-16.43;64.73
67842;BME280;54642;59.126;37.876;2024-02-14T02:28:46;101787.25;;;-16.43;65.00
67842;BME280;54642;59.126;37.876;2024-02-14T02:31:12;101797.91;;;-16.44;65.03
67842;BME280;54642;59.126;37.876;2024-02-14T02:33:39;101750.66;;;-16.64;64.63
67842;BME280;54642;59.126;37.876;2024-02-14T02:36:05;101758.91;;;-16.71;64.83
67842;BME280;54642;59.126;37.876;2024-02-14T02:38:52;101783.69;;;-16.58;64.71
67842;BME280;54642;59.126;37.876;2024-02-14T02:41:38;101804.25;;;-16.59;64.67
67842;BME280;54642;59.126;37.876;2024-02-14T02:44:23;101796.19;;;-16.64;64.78
67842;BME280;54642;59.126;37.876;2024-02-14T02:47:07;101799.97;;;-16.73;64.50
67842;BME280;54642;59.126;37.876;2024-02-14T02:49:55;101777.84;;;-16.84;64.66
67842;BME280;54642;59.126;37.876;2024-02-14T02:52:27;101760.78;;;-17.01;64.94
67842;BME280;54642;59.126;37.876;2024-02-14T02:55:13;101816.63;;;-16.72;64.73
67842;BME280;54642;59.126;37.876;2024-02-14T02:57:46;101818.72;;;-16.75;64.91
67842;BME280;54642;59.126;37.876;2024-02-14T03:00:12;101814.16;;;-16.85;64.92
67842;BME280;54642;59.126;37.876;2024-02-14T03:02:46;101814.53;;;-16.82;64.69
67842;BME280;54642;59.126;37.876;2024-02-14T03:05:22;101825.19;;;-16.83;64.87
67842;BME280;54642;59.126;37.876;2024-02-14T03:08:08;101834.38;;;-16.82;64.64
67842;BME280;54642;59.126;37.876;2024-02-14T03:11:04;101828.63;;;-16.88;64.52
67842;BME280;54642;59.126;37.876;2024-02-14T03:13:50;101836.88;;;-16.82;64.50
67842;BME280;54642;59.126;37.876;2024-02-14T03:16:36;101841.66;;;-16.83;64.91
67842;BME280;54642;59.126;37.876;2024-02-14T03:19:03;101844.22;;;-16.89;64.73
67842;BME280;54642;59.126;37.876;2024-02-14T03:21:31;101846.19;;;-16.86;64.85
67842;BME280;54642;59.126;37.876;2024-02-14T03:23:58;101836.88;;;-16.95;64.64
67842;BME280;54642;59.126;37.876;2024-02-14T03:26:24;101842.50;;;-16.96;64.44
67842;BME280;54642;59.126;37.876;2024-02-14T03:28:51;101856.53;;;-16.83;64.87
67842;BME280;54642;59.126;37.876;2024-02-14T03:31:19;101861.06;;;-16.86;64.51
67842;BME280;54642;59.126;37.876;2024-02-14T03:33:44;101856.22;;;-16.92;64.10
67842;BME280;54642;59.126;37.876;2024-02-14T03:36:10;101852.94;;;-16.98;64.65
67842;BME280;54642;59.126;37.876;2024-02-14T03:38:36;101822.75;;;-17.14;64.39
67842;BME280;54642;59.126;37.876;2024-02-14T03:41:02;101861.66;;;-16.95;64.67
67842;BME280;54642;59.126;37.876;2024-02-14T03:43:28;101852.00;;;-16.99;64.81
67842;BME280;54642;59.126;37.876;2024-02-14T03:45:54;101832.78;;;-17.07;64.67
67842;BME280;54642;59.126;37.876;2024-02-14T03:48:21;101833.44;;;-17.08;64.88
67842;BME280;54642;59.126;37.876;2024-02-14T03:50:47;101848.22;;;-17.02;64.41
67842;BME280;54642;59.126;37.876;2024-02-14T03:53:13;101825.22;;;-17.14;64.58
67842;BME280;54642;59.126;37.876;2024-02-14T03:55:40;101854.13;;;-17.02;64.62
67842;BME280;54642;59.126;37.876;2024-02-14T03:58:06;101824.00;;;-17.23;64.51
67842;BME280;54642;59.126;37.876;2024-02-14T04:00:34;101856.19;;;-17.05;64.56
67842;BME280;54642;59.126;37.876;2024-02-14T04:03:03;101859.84;;;-17.09;64.67
67842;BME280;54642;59.126;37.876;2024-02-14T04:05:29;101833.72;;;-17.25;64.76
67842;BME280;54642;59.126;37.876;2024-02-14T04:07:55;101864.28;;;-17.06;64.56
67842;BME280;54642;59.126;37.876;2024-02-14T04:10:21;101873.94;;;-17.02;64.86
67842;BME280;54642;59.126;37.876;2024-02-14T04:12:47;101872.84;;;-17.04;64.55
67842;BME280;54642;59.126;37.876;2024-02-14T04:15:13;101885.16;;;-16.98;64.75
67842;BME280;54642;59.126;37.876;2024-02-14T04:17:47;101869.66;;;-17.03;64.96
67842;BME280;54642;59.126;37.876;2024-02-14T04:20:13;101877.31;;;-17.01;64.53
67842;BME280;54642;59.126;37.876;2024-02-14T04:22:39;101881.84;;;-17.04;64.62
67842;BME280;54642;59.126;37.876;2024-02-14T04:25:07;101899.50;;;-17.09;64.75
67842;BME280;54642;59.126;37.876;2024-02-14T04:27:33;101887.09;;;-17.09;64.53
67842;BME280;54642;59.126;37.876;2024-02-14T04:30:00;101888.94;;;-17.13;64.50
67842;BME280;54642;59.126;37.876;2024-02-14T04:32:26;101894.63;;;-17.14;64.49
67842;BME280;54642;59.126;37.876;2024-02-14T04:34:52;101902.66;;;-17.10;64.94
67842;BME280;54642;59.126;37.876;2024-02-14T04:37:18;101870.47;;;-17.28;64.59
67842;BME280;54642;59.126;37.876;2024-02-14T04:39:45;101896.59;;;-17.12;64.54
67842;BME280;54642;59.126;37.876;2024-02-14T04:42:10;101905.22;;;-17.15;64.69
67842;BME280;54642;59.126;37.876;2024-02-14T04:44:36;101872.06;;;-17.29;64.68
67842;BME280;54642;59.126;37.876;2024-02-14T04:47:02;101891.50;;;-17.19;64.38
67842;BME280;54642;59.126;37.876;2024-02-14T04:49:28;101886.34;;;-17.20;64.48
67842;BME280;54642;59.126;37.876;2024-02-14T04:51:54;101896.75;;;-17.23;64.74
67842;BME280;54642;59.126;37.876;2024-02-14T04:54:20;101887.53;;;-17.24;64.32
67842;BME280;54642;59.126;37.876;2024-02-14T04:56:46;101884.44;;;-17.29;64.30
67842;BME280;54642;59.126;37.876;2024-02-14T04:59:12;101894.44;;;-17.34;63.99
67842;BME280;54642;59.126;37.876;2024-02-14T05:01:38;101894.22;;;-17.36;64.08
67842;BME280;54642;59.126;37.876;2024-02-14T05:04:06;101909.97;;;-17.35;64.15
67842;BME280;54642;59.126;37.876;2024-02-14T05:06:33;101869.03;;;-17.57;64.14
67842;BME280;54642;59.126;37.876;2024-02-14T05:08:59;101916.38;;;-17.43;63.99
67842;BME280;54642;59.126;37.876;2024-02-14T05:11:25;101894.16;;;-17.49;64.07
67842;BME280;54642;59.126;37.876;2024-02-14T05:13:50;101864.97;;;-17.75;64.20
67842;BME280;54642;59.126;37.876;2024-02-14T05:16:20;101901.63;;;-17.54;64.14
67842;BME280;54642;59.126;37.876;2024-02-14T05:18:46;101909.34;;;-17.58;64.02
67842;BME280;54642;59.126;37.876;2024-02-14T05:21:12;101912.53;;;-17.59;64.13
67842;BME280;54642;59.126;37.876;2024-02-14T05:23:38;101911.25;;;-17.69;63.92
67842;BME280;54642;59.126;37.876;2024-02-14T05:26:04;101918.91;;;-17.67;64.12
67842;BME280;54642;59.126;37.876;2024-02-14T05:28:30;101926.13;;;-17.69;63.93
67842;BME280;54642;59.126;37.876;2024-02-14T05:30:56;101917.19;;;-17.74;64.13
67842;BME280;54642;59.126;37.876;2024-02-14T05:33:26;101920.50;;;-17.68;64.04
67842;BME280;54642;59.126;37.876;2024-02-14T05:35:52;101900.59;;;-17.80;64.08
67842;BME280;54642;59.126;37.876;2024-02-14T05:38:18;101933.16;;;-17.72;64.00
67842;BME280;54642;59.126;37.876;2024-02-14T05:40:46;101916.84;;;-17.82;63.74
67842;BME280;54642;59.126;37.876;2024-02-14T05:43:12;101939.34;;;-17.81;63.76
67842;BME280;54642;59.126;37.876;2024-02-14T05:45:38;101950.22;;;-17.86;63.94
67842;BME280;54642;59.126;37.876;2024-02-14T05:48:04;101908.78;;;-18.06;63.83
67842;BME280;54642;59.126;37.876;2024-02-14T05:50:31;101959.81;;;-17.82;63.83
67842;BME280;54642;59.126;37.876;2024-02-14T05:52:57;101953.41;;;-17.74;63.95
67842;BME280;54642;59.126;37.876;2024-02-14T05:55:24;101891.50;;;-18.11;63.97
67842;BME280;54642;59.126;37.876;2024-02-14T05:57:51;101958.16;;;-17.76;63.78
67842;BME280;54642;59.126;37.876;2024-02-14T06:00:18;101966.94;;;-17.11;63.94
67842;BME280;54642;59.126;37.876;2024-02-14T06:02:44;101929.28;;;-16.96;62.40
67842;BME280;54642;59.126;37.876;2024-02-14T06:05:10;101949.28;;;-15.67;62.53
67842;BME280;54642;59.126;37.876;2024-02-14T06:07:40;101943.28;;;-14.16;61.89
67842;BME280;54642;59.126;37.876;2024-02-14T06:10:07;101953.56;;;-13.32;58.56
67842;BME280;54642;59.126;37.876;2024-02-14T06:12:33;101907.19;;;-13.51;57.43
67842;BME280;54642;59.126;37.876;2024-02-14T06:15:00;101938.47;;;-13.60;57.19
67842;BME280;54642;59.126;37.876;2024-02-14T06:17:26;101959.56;;;-12.59;57.07
67842;BME280;54642;59.126;37.876;2024-02-14T06:19:52;101955.03;;;-11.83;55.61
67842;BME280;54642;59.126;37.876;2024-02-14T06:22:18;101952.56;;;-11.31;53.32
67842;BME280;54642;59.126;37.876;2024-02-14T06:24:44;101899.44;;;-11.28;52.64
67842;BME280;54642;59.126;37.876;2024-02-14T06:27:11;101933.41;;;-10.93;52.21
67842;BME280;54642;59.126;37.876;2024-02-14T06:29:36;101942.88;;;-10.05;51.67
67842;BME280;54642;59.126;37.876;2024-02-14T06:32:02;101928.13;;;-9.47;50.69
67842;BME280;54642;59.126;37.876;2024-02-14T06:34:28;101936.53;;;-9.31;50.33
67842;BME280;54642;59.126;37.876;2024-02-14T06:36:54;101918.84;;;-9.24;49.65
67842;BME280;54642;59.126;37.876;2024-02-14T06:39:20;101904.28;;;-9.19;49.22
67842;BME280;54642;59.126;37.876;2024-02-14T06:41:46;101935.88;;;-8.47;49.21
67842;BME280;54642;59.126;37.876;2024-02-14T06:44:13;101921.63;;;-8.13;48.88
67842;BME280;54642;59.126;37.876;2024-02-14T06:46:38;101934.34;;;-7.35;48.17
67842;BME280;54642;59.126;37.876;2024-02-14T06:49:04;101908.84;;;-7.64;47.87
67842;BME280;54642;59.126;37.876;2024-02-14T06:51:31;101923.19;;;-7.11;48.42
67842;BME280;54642;59.126;37.876;2024-02-14T06:53:56;101942.25;;;-6.69;47.51
67842;BME280;54642;59.126;37.876;2024-02-14T06:56:22;101925.06;;;-6.28;47.45
67842;BME280;54642;59.126;37.876;2024-02-14T06:58:48;101928.25;;;-5.65;46.55
67842;BME280;54642;59.126;37.876;2024-02-14T07:01:19;101899.16;;;-5.51;46.54
67842;BME280;54642;59.126;37.876;2024-02-14T07:03:48;101902.75;;;-5.96;45.31
67842;BME280;54642;59.126;37.876;2024-02-14T07:06:15;101930.03;;;-6.38;46.06
67842;BME280;54642;59.126;37.876;2024-02-14T07:08:41;101930.84;;;-6.20;45.97
67842;BME280;54642;59.126;37.876;2024-02-14T07:11:07;101934.88;;;-6.03;45.46
67842;BME280;54642;59.126;37.876;2024-02-14T07:13:33;101931.16;;;-5.03;45.17
67842;BME280;54642;59.126;37.876;2024-02-14T07:15:58;101907.47;;;-5.14;44.17
67842;BME280;54642;59.126;37.876;2024-02-14T07:18:24;101937.41;;;-5.38;44.21
67842;BME280;54642;59.126;37.876;2024-02-14T07:20:50;101920.88;;;-6.55;41.44
67842;BME280;54642;59.126;37.876;2024-02-14T07:23:18;101934.31;;;-7.09;43.31
67842;BME280;54642;59.126;37.876;2024-02-14T07:25:43;101933.00;;;-7.40;43.30
67842;BME280;54642;59.126;37.876;2024-02-14T07:28:10;101928.38;;;-6.92;44.40
67842;BME280;54642;59.126;37.876;2024-02-14T07:30:36;101910.63;;;-6.57;43.69
67842;BME280;54642;59.126;37.876;2024-02-14T07:33:02;101913.66;;;-6.78;43.15
67842;BME280;54642;59.126;37.876;2024-02-14T07:35:28;101941.97;;;-6.63;43.77
67842;BME280;54642;59.126;37.876;2024-02-14T07:37:55;101936.00;;;-6.64;43.40
67842;BME280;54642;59.126;37.876;2024-02-14T07:40:22;101944.66;;;-6.79;43.38
67842;BME280;54642;59.126;37.876;2024-02-14T07:43:05;101955.56;;;-8.01;44.63
67842;BME280;54642;59.126;37.876;2024-02-14T07:45:32;101962.31;;;-9.56;46.94
67842;BME280;54642;59.126;37.876;2024-02-14T07:47:59;101951.88;;;-10.46;49.82
67842;BME280;54642;59.126;37.876;2024-02-14T07:50:24;101991.69;;;-11.24;51.36
67842;BME280;54642;59.126;37.876;2024-02-14T07:52:50;101987.16;;;-11.64;53.36
67842;BME280;54642;59.126;37.876;2024-02-14T07:55:16;101976.47;;;-11.85;53.97
67842;BME280;54642;59.126;37.876;2024-02-14T07:57:42;101961.19;;;-12.17;55.03
67842;BME280;54642;59.126;37.876;2024-02-14T08:00:09;101997.63;;;-12.26;54.85
67842;BME280;54642;59.126;37.876;2024-02-14T08:02:36;102008.44;;;-12.61;55.15
67842;BME280;54642;59.126;37.876;2024-02-14T08:05:02;102004.66;;;-12.79;55.82
67842;BME280;54642;59.126;37.876;2024-02-14T08:07:30;102006.56;;;-12.98;56.05
67842;BME280;54642;59.126;37.876;2024-02-14T08:09:56;101994.47;;;-12.95;56.22
67842;BME280;54642;59.126;37.876;2024-02-14T08:12:22;101938.84;;;-13.01;56.51
67842;BME280;54642;59.126;37.876;2024-02-14T08:14:50;101991.16;;;-12.45;56.87
67842;BME280;54642;59.126;37.876;2024-02-14T08:17:16;101991.72;;;-12.34;56.95
67842;BME280;54642;59.126;37.876;2024-02-14T08:19:41;101959.25;;;-12.55;56.38
67842;BME280;54642;59.126;37.876;2024-02-14T08:22:07;101959.06;;;-12.64;56.87
67842;BME280;54642;59.126;37.876;2024-02-14T08:24:33;101989.03;;;-12.64;56.88
67842;BME280;54642;59.126;37.876;2024-02-14T08:26:59;101993.09;;;-12.64;56.95
67842;BME280;54642;59.126;37.876;2024-02-14T08:29:25;101947.06;;;-12.88;57.02
67842;BME280;54642;59.126;37.876;2024-02-14T08:31:51;101967.41;;;-12.85;56.64
67842;BME280;54642;59.126;37.876;2024-02-14T08:34:17;101984.31;;;-12.82;56.58
67842;BME280;54642;59.126;37.876;2024-02-14T08:36:43;101991.13;;;-12.74;57.22
67842;BME280;54642;59.126;37.876;2024-02-14T08:39:09;101988.84;;;-12.66;57.31
67842;BME280;54642;59.126;37.876;2024-02-14T08:41:39;101982.78;;;-12.60;56.99
67842;BME280;54642;59.126;37.876;2024-02-14T08:44:07;101970.59;;;-12.72;57.34
67842;BME280;54642;59.126;37.876;2024-02-14T08:46:33;101995.28;;;-12.53;57.11
67842;BME280;54642;59.126;37.876;2024-02-14T08:49:02;101996.72;;;-12.55;56.99
67842;BME280;54642;59.126;37.876;2024-02-14T08:51:30;101964.03;;;-12.64;57.14
67842;BME280;54642;59.126;37.876;2024-02-14T08:53:56;101971.38;;;-12.58;57.11
67842;BME280;54642;59.126;37.876;2024-02-14T08:56:25;101941.72;;;-12.77;56.89
67842;BME280;54642;59.126;37.876;2024-02-14T08:58:51;101978.69;;;-12.53;57.10
67842;BME280;54642;59.126;37.876;2024-02-14T09:01:17;101980.13;;;-12.33;57.49
67842;BME280;54642;59.126;37.876;2024-02-14T09:03:43;101955.13;;;-12.55;57.26
67842;BME280;54642;59.126;37.876;2024-02-14T09:06:13;101974.75;;;-12.36;57.28
67842;BME280;54642;59.126;37.876;2024-02-14T09:08:40;101964.06;;;-12.42;56.71
67842;BME280;54642;59.126;37.876;2024-02-14T09:11:06;101973.16;;;-12.36;57.01
67842;BME280;54642;59.126;37.876;2024-02-14T09:13:33;101949.59;;;-12.31;57.06
67842;BME280;54642;59.126;37.876;2024-02-14T09:15:59;101981.56;;;-12.14;57.01
67842;BME280;54642;59.126;37.876;2024-02-14T09:18:25;101977.81;;;-12.10;57.33
67842;BME280;54642;59.126;37.876;2024-02-14T09:20:51;101946.22;;;-12.24;57.39
67842;BME280;54642;59.126;37.876;2024-02-14T09:23:17;101958.88;;;-12.15;57.40
67842;BME280;54642;59.126;37.876;2024-02-14T09:25:48;101981.91;;;-11.96;57.51
67842;BME280;54642;59.126;37.876;2024-02-14T09:28:16;101957.59;;;-11.97;57.56
67842;BME280;54642;59.126;37.876;2024-02-14T09:30:41;101978.97;;;-11.85;57.58
67842;BME280;54642;59.126;37.876;2024-02-14T09:33:07;101972.16;;;-11.79;57.50
67842;BME280;54642;59.126;37.876;2024-02-14T09:35:34;101976.25;;;-11.65;57.91
67842;BME280;54642;59.126;37.876;2024-02-14T09:38:01;101961.09;;;-11.74;57.88
67842;BME280;54642;59.126;37.876;2024-02-14T09:40:27;101971.63;;;-11.69;57.61
67842;BME280;54642;59.126;37.876;2024-02-14T09:42:56;101946.47;;;-11.78;57.68
67842;BME280;54642;59.126;37.876;2024-02-14T09:45:25;101976.41;;;-11.49;58.02
67842;BME280;54642;59.126;37.876;2024-02-14T09:47:52;101961.03;;;-11.52;57.89
67842;BME280;54642;59.126;37.876;2024-02-14T09:50:19;101956.75;;;-11.53;57.53
67842;BME280;54642;59.126;37.876;2024-02-14T09:52:49;101965.31;;;-11.51;57.90
67842;BME280;54642;59.126;37.876;2024-02-14T09:55:16;101972.44;;;-11.47;57.69
67842;BME280;54642;59.126;37.876;2024-02-14T09:57:43;101962.41;;;-11.40;58.31
67842;BME280;54642;59.126;37.876;2024-02-14T10:00:10;101948.47;;;-11.38;57.78
67842;BME280;54642;59.126;37.876;2024-02-14T10:02:36;101967.09;;;-11.05;57.87
67842;BME280;54642;59.126;37.876;2024-02-14T10:05:03;101928.22;;;-10.95;57.98
67842;BME280;54642;59.126;37.876;2024-02-14T10:07:29;101939.47;;;-10.91;57.63
67842;BME280;54642;59.126;37.876;2024-02-14T10:09:54;101943.00;;;-10.82;57.72
67842;BME280;54642;59.126;37.876;2024-02-14T10:12:30;101962.97;;;-10.67;57.15
67842;BME280;54642;59.126;37.876;2024-02-14T10:14:56;101967.78;;;-10.69;57.29
67842;BME280;54642;59.126;37.876;2024-02-14T10:17:22;101954.31;;;-10.62;57.48
67842;BME280;54642;59.126;37.876;2024-02-14T10:19:55;101927.44;;;-10.56;58.06
67842;BME280;54642;59.126;37.876;2024-02-14T10:22:21;101952.50;;;-10.33;57.54
67842;BME280;54642;59.126;37.876;2024-02-14T10:24:47;101950.22;;;-10.23;56.88
67842;BME280;54642;59.126;37.876;2024-02-14T10:27:15;101925.47;;;-10.36;57.04
67842;BME280;54642;59.126;37.876;2024-02-14T10:29:41;101948.94;;;-10.03;57.08
67842;BME280;54642;59.126;37.876;2024-02-14T10:32:07;101946.69;;;-10.09;56.70
67842;BME280;54642;59.126;37.876;2024-02-14T10:34:34;101951.31;;;-10.05;56.45
67842;BME280;54642;59.126;37.876;2024-02-14T10:37:04;101934.84;;;-10.26;56.40
67842;BME280;54642;59.126;37.876;2024-02-14T10:39:33;101940.50;;;-10.20;57.05
67842;BME280;54642;59.126;37.876;2024-02-14T10:42:02;101959.34;;;-9.84;56.51
67842;BME280;54642;59.126;37.876;2024-02-14T10:44:29;101952.25;;;-9.56;57.29
67842;BME280;54642;59.126;37.876;2024-02-14T10:46:59;101942.41;;;-9.14;56.73
67842;BME280;54642;59.126;37.876;2024-02-14T10:49:27;101940.56;;;-9.08;56.41
67842;BME280;54642;59.126;37.876;2024-02-14T10:51:56;101936.53;;;-8.90;56.46
67842;BME280;54642;59.126;37.876;2024-02-14T10:54:26;101943.81;;;-8.60;55.95
67842;BME280;54642;59.126;37.876;2024-02-14T10:56:54;101931.31;;;-8.34;55.56
67842;BME280;54642;59.126;37.876;2024-02-14T10:59:25;101943.28;;;-7.89;55.04
67842;BME280;54642;59.126;37.876;2024-02-14T11:01:52;101946.63;;;-7.38;54.42
67842;BME280;54642;59.126;37.876;2024-02-14T11:04:18;101918.78;;;-7.13;54.10
67842;BME280;54642;59.126;37.876;2024-02-14T11:06:48;101922.75;;;-6.98;53.30
67842;BME280;54642;59.126;37.876;2024-02-14T11:09:14;101944.53;;;-7.07;53.49
67842;BME280;54642;59.126;37.876;2024-02-14T11:11:47;101949.44;;;-7.09;53.89
67842;BME280;54642;59.126;37.876;2024-02-14T11:14:18;101926.94;;;-7.42;53.59
67842;BME280;54642;59.126;37.876;2024-02-14T11:16:47;101937.72;;;-7.78;53.69
67842;BME280;54642;59.126;37.876;2024-02-14T11:19:14;101925.75;;;-8.14;55.08
67842;BME280;54642;59.126;37.876;2024-02-14T11:21:46;101911.81;;;-8.28;55.16
67842;BME280;54642;59.126;37.876;2024-02-14T11:24:15;101934.28;;;-8.29;55.91
67842;BME280;54642;59.126;37.876;2024-02-14T11:26:48;101936.59;;;-8.48;56.17
67842;BME280;54642;59.126;37.876;2024-02-14T11:29:17;101908.72;;;-8.92;56.30
67842;BME280;54642;59.126;37.876;2024-02-14T11:31:44;101938.16;;;-9.07;56.62
67842;BME280;54642;59.126;37.876;2024-02-14T11:34:14;101889.53;;;-9.56;56.56
67842;BME280;54642;59.126;37.876;2024-02-14T11:36:45;101936.44;;;-9.40;56.65
67842;BME280;54642;59.126;37.876;2024-02-14T11:39:11;101936.72;;;-9.61;56.54
67842;BME280;54642;59.126;37.876;2024-02-14T11:41:40;101934.34;;;-9.91;56.83
67842;BME280;54642;59.126;37.876;2024-02-14T11:44:08;101942.81;;;-9.98;57.64
67842;BME280;54642;59.126;37.876;2024-02-14T11:46:35;101912.47;;;-10.24;57.58
67842;BME280;54642;59.126;37.876;2024-02-14T11:49:02;101912.13;;;-10.27;57.71
67842;BME280;54642;59.126;37.876;2024-02-14T11:51:35;101927.66;;;-10.07;57.79
67842;BME280;54642;59.126;37.876;2024-02-14T11:54:05;101913.84;;;-10.03;58.09
67842;BME280;54642;59.126;37.876;2024-02-14T11:56:33;101906.84;;;-9.83;58.39
67842;BME280;54642;59.126;37.876;2024-02-14T11:59:00;101905.59;;;-9.23;59.12
67842;BME280;54642;59.126;37.876;2024-02-14T12:01:34;101924.81;;;-8.74;58.51
67842;BME280;54642;59.126;37.876;2024-02-14T12:04:01;101923.38;;;-8.63;57.85
67842;BME280;54642;59.126;37.876;2024-02-14T12:06:32;101882.19;;;-8.81;57.95
67842;BME280;54642;59.126;37.876;2024-02-14T12:09:04;101874.50;;;-8.83;57.64
67842;BME280;54642;59.126;37.876;2024-02-14T12:11:33;101887.19;;;-8.48;58.38
67842;BME280;54642;59.126;37.876;2024-02-14T12:14:02;101909.72;;;-7.46;58.87
67842;BME280;54642;59.126;37.876;2024-02-14T12:16:29;101886.53;;;-6.81;58.53
67842;BME280;54642;59.126;37.876;2024-02-14T12:19:15;101902.97;;;-6.30;57.79
67842;BME280;54642;59.126;37.876;2024-02-14T12:21:42;101894.84;;;-5.90;57.99
67842;BME280;54642;59.126;37.876;2024-02-14T12:24:11;101903.97;;;-5.54;58.45
67842;BME280;54642;59.126;37.876;2024-02-14T12:26:41;101876.44;;;-5.70;58.25
67842;BME280;54642;59.126;37.876;2024-02-14T12:29:07;101891.44;;;-5.71;58.26
67842;BME280;54642;59.126;37.876;2024-02-14T12:31:34;101905.88;;;-5.70;58.02
67842;BME280;54642;59.126;37.876;2024-02-14T12:34:02;101886.69;;;-5.68;58.52
67842;BME280;54642;59.126;37.876;2024-02-14T12:36:31;101888.00;;;-6.10;57.81